Time;durP1;ratioP1;P1;durP2;ratioP2;P2;SDS_P1;SDS_P2;PMS_P1;PMS_P2;Temp;Humidity;BMP_temperature;BMP_pressure;BME280_temperature;BME280_humidity;BME280_pressure;Samples;Min_cycle;Max_cycle;Signal;HPM_P1;HPM_P2
2023/07/16 00:00:00;;;;;;;1.23;0.87;;;;;26.20;99875.00;;;;2054629;28;20490;-69
2023/07/16 00:01:01;;;;;;;1.13;0.83;;;;;26.20;99876.00;;;;2072191;28;20272;-69
2023/07/16 00:02:01;;;;;;;1.00;0.63;;;;;26.20;99878.00;;;;2072044;28;20214;-69
2023/07/16 00:03:01;;;;;;;1.23;0.80;;;;;26.10;99884.00;;;;2065226;28;20301;-69
2023/07/16 00:04:02;;;;;;;1.23;0.90;;;;;26.20;99883.00;;;;2067013;28;20225;-69
2023/07/16 00:05:03;;;;;;;0.93;0.80;;;;;26.20;99876.00;;;;2052944;28;20300;-69
2023/07/16 00:06:03;;;;;;;1.10;0.60;;;;;26.20;99879.00;;;;2057115;28;20606;-69
2023/07/16 00:07:04;;;;;;;1.10;0.83;;;;;26.20;99869.00;;;;2064338;28;20446;-69
2023/07/16 00:08:04;;;;;;;0.80;0.60;;;;;26.20;99878.00;;;;2063909;28;20274;-69
2023/07/16 00:09:04;;;;;;;0.90;0.70;;;;;26.20;99881.00;;;;2066368;28;20702;-69
2023/07/16 00:10:05;;;;;;;1.27;0.70;;;;;26.20;99875.00;;;;2059049;28;20242;-69
2023/07/16 00:11:06;;;;;;;1.33;0.80;;;;;26.20;99878.00;;;;2066827;28;20215;-69
2023/07/16 00:12:06;;;;;;;1.07;0.77;;;;;26.20;99878.00;;;;2064950;28;20239;-69
2023/07/16 00:13:06;;;;;;;0.97;0.70;;;;;26.20;99882.00;;;;2069951;28;20642;-69
2023/07/16 00:14:07;;;;;;;1.50;0.93;;;;;26.20;99878.00;;;;2065859;28;20214;-69
2023/07/16 00:15:07;;;;;;;1.67;1.00;;;;;26.20;99882.00;;;;2058850;28;20305;-69
2023/07/16 00:16:08;;;;;;;1.00;0.70;;;;;26.20;99871.00;;;;2066709;28;20219;-69
2023/07/16 00:17:08;;;;;;;0.97;0.70;;;;;26.20;99874.00;;;;2064836;28;20679;-69
2023/07/16 00:18:08;;;;;;;2.07;0.90;;;;;26.20;99876.00;;;;2067354;28;20820;-69
2023/07/16 00:19:10;;;;;;;1.10;0.83;;;;;26.20;99876.00;;;;2065551;28;21074;-69
2023/07/16 00:20:11;;;;;;;1.23;0.97;;;;;26.20;99878.00;;;;2058013;28;20222;-69
2023/07/16 00:21:11;;;;;;;1.50;0.80;;;;;26.20;99872.00;;;;2065011;28;20490;-69
2023/07/16 00:22:11;;;;;;;1.30;0.90;;;;;26.20;99884.00;;;;2063784;28;20293;-69
2023/07/16 00:23:12;;;;;;;1.30;0.90;;;;;26.20;99879.00;;;;2071900;28;20222;-69
2023/07/16 00:24:12;;;;;;;1.20;0.80;;;;;26.20;99881.00;;;;2061357;28;20222;-69
2023/07/16 00:25:12;;;;;;;1.00;0.77;;;;;26.20;99880.00;;;;2065320;28;20223;-69
2023/07/16 00:26:13;;;;;;;1.40;0.70;;;;;26.20;99889.00;;;;2064768;28;20214;-69
2023/07/16 00:27:13;;;;;;;1.10;0.77;;;;;26.20;99882.00;;;;2068329;28;20280;-69
2023/07/16 00:28:14;;;;;;;1.30;0.80;;;;;26.20;99885.00;;;;2071447;28;20238;-69
2023/07/16 00:29:14;;;;;;;1.10;0.80;;;;;26.20;99880.00;;;;2056326;28;20281;-68
2023/07/16 00:30:14;;;;;;;1.00;0.70;;;;;26.20;99866.00;;;;2065603;28;20241;-68
2023/07/16 00:31:15;;;;;;;1.50;0.90;;;;;26.20;99882.00;;;;2065275;28;20210;-69
2023/07/16 00:32:15;;;;;;;0.90;0.70;;;;;26.20;99885.00;;;;2071533;28;20277;-69
2023/07/16 00:33:15;;;;;;;1.10;0.93;;;;;26.20;99882.00;;;;2065371;28;20605;-69
2023/07/16 00:34:16;;;;;;;1.20;0.80;;;;;26.20;99889.00;;;;2061186;28;20218;-69
2023/07/16 00:35:16;;;;;;;1.20;1.00;;;;;26.20;99883.00;;;;2065101;28;20233;-69
2023/07/16 00:36:16;;;;;;;1.53;0.80;;;;;26.20;99890.00;;;;2068523;28;20214;-69
2023/07/16 00:37:17;;;;;;;0.90;0.70;;;;;26.20;99890.00;;;;2066107;28;20592;-69
2023/07/16 00:38:18;;;;;;;1.13;0.90;;;;;26.20;99903.00;;;;2064732;28;20234;-69
2023/07/16 00:39:18;;;;;;;1.27;0.87;;;;;26.20;99909.00;;;;2057924;28;20246;-69
2023/07/16 00:40:18;;;;;;;0.83;0.80;;;;;26.20;99922.00;;;;2062473;28;20499;-69
2023/07/16 00:41:19;;;;;;;1.13;1.00;;;;;26.20;99907.00;;;;2071799;28;20253;-69
2023/07/16 00:42:19;;;;;;;2.17;0.80;;;;;26.20;99900.00;;;;2071686;28;20246;-69
2023/07/16 00:43:19;;;;;;;1.03;0.90;;;;;26.20;99903.00;;;;2068611;28;20218;-69
2023/07/16 00:44:21;;;;;;;1.17;0.70;;;;;26.20;99906.00;;;;2060382;28;20218;-69
2023/07/16 00:45:21;;;;;;;1.10;0.80;;;;;26.20;99910.00;;;;2064035;28;20234;-69
2023/07/16 00:46:22;;;;;;;1.90;1.00;;;;;26.20;99913.00;;;;2064755;28;20850;-69
2023/07/16 00:47:22;;;;;;;1.10;0.70;;;;;26.20;99917.00;;;;2065387;28;20228;-69
2023/07/16 00:48:22;;;;;;;1.73;0.90;;;;;26.20;99910.00;;;;2071819;28;20230;-69
2023/07/16 00:49:23;;;;;;;1.27;1.00;;;;;26.20;99913.00;;;;2045661;28;20258;-69
2023/07/16 00:50:24;;;;;;;1.87;1.00;;;;;26.10;99909.00;;;;2047328;28;20236;-69
2023/07/16 00:51:24;;;;;;;1.97;0.90;;;;;26.20;99904.00;;;;2055592;28;20455;-69
2023/07/16 00:52:24;;;;;;;0.80;0.70;;;;;26.10;99901.00;;;;2062019;28;20242;-69
2023/07/16 00:53:25;;;;;;;1.43;0.80;;;;;26.10;99911.00;;;;2065818;28;20966;-69
2023/07/16 00:54:25;;;;;;;1.60;0.80;;;;;26.10;99903.00;;;;2052723;28;20272;-69
2023/07/16 00:55:26;;;;;;;1.00;0.80;;;;;26.10;99906.00;;;;2068507;28;20230;-69
2023/07/16 00:56:26;;;;;;;0.80;0.60;;;;;26.10;99905.00;;;;2064777;28;20226;-69
2023/07/16 00:57:26;;;;;;;1.00;0.70;;;;;26.10;99902.00;;;;2063641;28;20725;-69
2023/07/16 00:58:26;;;;;;;3.60;0.83;;;;;26.20;99906.00;;;;2055557;28;20769;-69
2023/07/16 00:59:27;;;;;;;1.30;0.90;;;;;26.10;99896.00;;;;2052463;28;20222;-69
2023/07/16 01:00:27;;;;;;;1.57;0.67;;;;;26.10;99898.00;;;;2070818;28;20271;-69
2023/07/16 01:01:28;;;;;;;1.10;0.70;;;;;26.20;99896.00;;;;2065140;28;20226;-69
2023/07/16 01:02:28;;;;;;;1.10;0.80;;;;;26.10;99903.00;;;;2063735;28;20278;-69
2023/07/16 01:03:28;;;;;;;1.67;1.10;;;;;26.10;99893.00;;;;2068233;28;20667;-69
2023/07/16 01:04:29;;;;;;;1.00;0.70;;;;;26.10;99911.00;;;;2052981;28;20631;-69
2023/07/16 01:05:34;;;;;;;1.83;0.93;;;;;26.10;99889.00;;;;2071683;28;20336;-69
2023/07/16 01:06:41;;;;;;;1.50;1.13;;;;;26.10;99916.00;;;;2063852;28;20222;-69
2023/07/16 01:07:43;;;;;;;1.07;0.73;;;;;26.20;99920.00;;;;2068810;28;20539;-69
2023/07/16 01:08:54;;;;;;;1.20;0.80;;;;;26.10;99923.00;;;;2060960;28;20434;-69
2023/07/16 01:09:54;;;;;;;1.00;0.80;;;;;26.10;99890.00;;;;2043855;28;20460;-69
2023/07/16 01:10:55;;;;;;;1.57;0.73;;;;;26.10;99920.00;;;;2048674;28;20451;-69
2023/07/16 01:11:55;;;;;;;1.10;0.80;;;;;26.10;99914.00;;;;2059055;28;20526;-69
2023/07/16 01:12:55;;;;;;;2.13;1.10;;;;;26.10;99891.00;;;;2066371;28;20222;-69
2023/07/16 01:13:56;;;;;;;1.67;0.83;;;;;26.10;99894.00;;;;2063402;28;20269;-69
2023/07/16 01:14:57;;;;;;;1.03;0.70;;;;;26.10;99918.00;;;;2053764;28;20266;-69
2023/07/16 01:15:57;;;;;;;1.00;0.70;;;;;26.10;99920.00;;;;2054704;28;20475;-69
2023/07/16 01:16:58;;;;;;;1.47;0.70;;;;;26.10;99927.00;;;;2066665;28;20219;-69
2023/07/16 01:18:00;;;;;;;1.20;0.80;;;;;26.10;99920.00;;;;2063967;28;20226;-69
2023/07/16 01:19:00;;;;;;;1.07;0.60;;;;;26.10;99917.00;;;;2063769;28;20472;-69
2023/07/16 01:20:00;;;;;;;0.90;0.70;;;;;26.10;99916.00;;;;2056790;28;20462;-69
2023/07/16 01:21:00;;;;;;;1.77;0.93;;;;;26.10;99914.00;;;;2065120;28;20218;-69
2023/07/16 01:22:10;;;;;;;1.40;1.00;;;;;26.10;99912.00;;;;2066197;28;20226;-69
2023/07/16 01:23:27;;;;;;;1.60;0.83;;;;;26.10;99905.00;;;;2063295;28;20325;-69
2023/07/16 01:24:47;;;;;;;0.90;0.70;;;;;26.10;99913.00;;;;2054999;28;20449;-69
2023/07/16 01:25:53;;;;;;;1.33;0.90;;;;;26.10;99905.00;;;;2060768;28;20564;-69
2023/07/16 01:26:59;;;;;;;1.10;0.60;;;;;26.10;99908.00;;;;2060181;28;20451;-69
2023/07/16 01:28:05;;;;;;;2.20;1.10;;;;;26.10;99915.00;;;;2064731;28;20465;-69
2023/07/16 01:29:14;;;;;;;1.20;0.90;;;;;26.10;99915.00;;;;2061643;28;20462;-69
2023/07/16 01:30:15;;;;;;;1.00;0.80;;;;;26.10;99917.00;;;;2055069;28;20607;-69
2023/07/16 01:31:17;;;;;;;1.20;0.70;;;;;26.10;99922.00;;;;2063329;28;20467;-69
2023/07/16 01:32:17;;;;;;;1.20;0.90;;;;;26.10;99911.00;;;;2062817;28;20472;-69
2023/07/16 01:33:17;;;;;;;2.30;0.93;;;;;26.10;99921.00;;;;2069877;28;20497;-69
2023/07/16 01:34:18;;;;;;;1.07;0.80;;;;;26.10;99917.00;;;;2046180;28;20220;-69
2023/07/16 01:35:18;;;;;;;1.20;0.90;;;;;26.10;99915.00;;;;2058785;28;20231;-69
2023/07/16 01:36:18;;;;;;;1.07;0.80;;;;;26.10;99887.00;;;;2062954;28;20234;-69
2023/07/16 01:37:19;;;;;;;1.00;0.70;;;;;26.10;99920.00;;;;2053886;28;20297;-69
2023/07/16 01:38:20;;;;;;;1.10;0.80;;;;;26.10;99916.00;;;;2061532;28;20223;-69
2023/07/16 01:39:21;;;;;;;1.77;0.90;;;;;26.10;99915.00;;;;2059400;28;20222;-69
2023/07/16 01:40:21;;;;;;;1.63;0.73;;;;;26.10;99912.00;;;;2071347;28;20460;-69
2023/07/16 01:41:21;;;;;;;1.10;0.80;;;;;26.10;99914.00;;;;2071354;28;20261;-69
2023/07/16 01:42:22;;;;;;;0.97;0.80;;;;;26.10;99912.00;;;;2068438;28;20233;-69
2023/07/16 01:43:22;;;;;;;1.50;1.00;;;;;26.10;99919.00;;;;2064696;28;20249;-69
2023/07/16 01:44:22;;;;;;;1.33;0.70;;;;;26.10;99919.00;;;;2053840;28;20609;-69
2023/07/16 01:45:23;;;;;;;1.30;0.87;;;;;26.10;99920.00;;;;2066918;28;20283;-69
2023/07/16 01:46:23;;;;;;;2.33;1.30;;;;;26.10;99922.00;;;;2063370;28;20231;-69
2023/07/16 01:47:36;;;;;;;1.60;0.60;;;;;26.10;99922.00;;;;2055059;28;20298;-69
2023/07/16 01:48:37;;;;;;;1.30;0.80;;;;;26.10;99925.00;;;;2051772;28;20225;-69
2023/07/16 01:49:38;;;;;;;1.10;0.70;;;;;26.10;99874.00;;;;2052917;28;20466;-69
2023/07/16 01:50:38;;;;;;;1.27;1.03;;;;;26.10;99921.00;;;;2063170;28;20245;-69
2023/07/16 01:51:39;;;;;;;1.70;0.67;;;;;26.10;99924.00;;;;2064018;28;20458;-69
2023/07/16 01:52:39;;;;;;;1.67;1.00;;;;;26.10;99928.00;;;;2066635;28;20238;-69
2023/07/16 01:53:40;;;;;;;0.90;0.70;;;;;26.10;99928.00;;;;2064820;28;20222;-69
2023/07/16 01:54:40;;;;;;;1.00;0.70;;;;;26.10;99938.00;;;;2060194;28;20634;-69
2023/07/16 01:55:41;;;;;;;1.00;0.70;;;;;26.10;99937.00;;;;2065508;28;20496;-69
2023/07/16 01:56:41;;;;;;;1.20;0.70;;;;;26.10;99935.00;;;;2063545;28;20242;-69
2023/07/16 01:57:41;;;;;;;1.10;0.80;;;;;26.10;99938.00;;;;2068608;28;20217;-69
2023/07/16 01:58:42;;;;;;;1.10;0.83;;;;;26.10;99939.00;;;;2064722;28;20625;-69
2023/07/16 01:59:42;;;;;;;1.40;0.80;;;;;26.10;99941.00;;;;2054606;28;20693;-69
2023/07/16 02:00:42;;;;;;;1.33;0.73;;;;;26.10;99936.00;;;;2063016;28;20254;-69
2023/07/16 02:01:43;;;;;;;0.90;0.70;;;;;26.10;99943.00;;;;2063875;28;20824;-69
2023/07/16 02:02:43;;;;;;;1.00;0.90;;;;;26.10;99932.00;;;;2069603;28;20226;-69
2023/07/16 02:03:43;;;;;;;1.10;0.73;;;;;26.10;99942.00;;;;2064550;28;20588;-69
2023/07/16 02:04:44;;;;;;;1.27;0.80;;;;;26.10;99939.00;;;;2056438;28;20562;-69
2023/07/16 02:05:44;;;;;;;1.00;0.73;;;;;26.10;99939.00;;;;2071025;28;20731;-69
2023/07/16 02:06:44;;;;;;;1.20;1.00;;;;;26.10;99951.00;;;;2068760;28;21216;-69
2023/07/16 02:07:44;;;;;;;1.50;1.00;;;;;26.10;99898.00;;;;2068914;28;20212;-69
2023/07/16 02:08:45;;;;;;;1.57;1.00;;;;;26.10;99946.00;;;;2056387;28;20207;-69
2023/07/16 02:09:45;;;;;;;1.17;0.87;;;;;26.10;99949.00;;;;2050991;28;20227;-69
2023/07/16 02:10:49;;;;;;;1.20;0.80;;;;;26.10;99952.00;;;;2068419;28;20218;-69
2023/07/16 02:11:49;;;;;;;1.70;0.90;;;;;26.10;99951.00;;;;2055054;28;20241;-69
2023/07/16 02:12:49;;;;;;;1.00;0.80;;;;;26.10;99948.00;;;;2052083;28;20999;-69
2023/07/16 02:13:49;;;;;;;1.10;0.70;;;;;26.10;99956.00;;;;2046236;29;20242;-69
2023/07/16 02:14:50;;;;;;;1.00;0.80;;;;;26.10;99950.00;;;;2044401;28;20219;-69
2023/07/16 02:15:50;;;;;;;1.67;0.93;;;;;26.10;99952.00;;;;2063323;28;20277;-69
2023/07/16 02:16:50;;;;;;;1.30;0.90;;;;;26.10;99956.00;;;;2063951;28;20206;-69
2023/07/16 02:17:51;;;;;;;1.07;0.80;;;;;26.10;99951.00;;;;2063630;28;20217;-69
2023/07/16 02:18:51;;;;;;;1.00;0.80;;;;;26.10;99944.00;;;;2064530;28;20207;-69
2023/07/16 02:19:51;;;;;;;1.00;0.80;;;;;26.10;99954.00;;;;2056039;28;20617;-69
2023/07/16 02:20:52;;;;;;;2.00;0.83;;;;;26.10;99958.00;;;;2067577;28;20596;-69
2023/07/16 02:21:52;;;;;;;2.33;0.80;;;;;26.10;99951.00;;;;2065812;28;20683;-69
2023/07/16 02:22:52;;;;;;;1.10;0.77;;;;;26.10;99953.00;;;;2063793;28;20214;-69
2023/07/16 02:23:53;;;;;;;1.27;0.80;;;;;26.10;99952.00;;;;2066555;28;20237;-69
2023/07/16 02:24:53;;;;;;;1.43;0.87;;;;;26.10;99951.00;;;;2058198;28;20233;-69
2023/07/16 02:25:54;;;;;;;1.20;0.63;;;;;26.10;99947.00;;;;2063058;28;20241;-69
2023/07/16 02:26:54;;;;;;;1.00;0.63;;;;;26.10;99949.00;;;;2066721;28;20218;-69
2023/07/16 02:27:54;;;;;;;0.90;0.70;;;;;26.10;99952.00;;;;2064178;28;20225;-69
2023/07/16 02:28:54;;;;;;;1.17;0.70;;;;;26.10;99951.00;;;;2068209;28;20222;-69
2023/07/16 02:29:55;;;;;;;1.07;0.60;;;;;26.10;99949.00;;;;2054558;28;20241;-69
2023/07/16 02:30:55;;;;;;;1.33;0.90;;;;;26.10;99948.00;;;;2063188;28;20292;-69
2023/07/16 02:31:56;;;;;;;1.10;0.83;;;;;26.10;99956.00;;;;2065648;28;20223;-69
2023/07/16 02:32:56;;;;;;;1.23;0.80;;;;;26.10;99957.00;;;;2063731;28;20261;-69
2023/07/16 02:33:56;;;;;;;1.43;0.87;;;;;26.10;99945.00;;;;2067579;28;20226;-69
2023/07/16 02:34:57;;;;;;;1.07;0.93;;;;;26.10;99957.00;;;;2051851;28;20257;-69
2023/07/16 02:35:57;;;;;;;1.40;1.00;;;;;26.10;99961.00;;;;2064088;28;20218;-69
2023/07/16 02:36:57;;;;;;;1.10;0.90;;;;;26.10;99945.00;;;;2067347;28;20629;-69
2023/07/16 02:37:57;;;;;;;1.03;0.60;;;;;26.10;99970.00;;;;2062989;28;20590;-69
2023/07/16 02:38:58;;;;;;;1.00;0.80;;;;;26.10;99969.00;;;;2059386;28;20662;-69
2023/07/16 02:39:58;;;;;;;1.20;0.70;;;;;26.10;99971.00;;;;2054316;28;20750;-69
2023/07/16 02:40:58;;;;;;;1.30;0.90;;;;;26.10;99966.00;;;;2065432;28;20227;-69
2023/07/16 02:41:59;;;;;;;2.00;0.90;;;;;26.10;99976.00;;;;2066234;28;20226;-69
2023/07/16 02:42:59;;;;;;;1.17;0.90;;;;;26.10;99976.00;;;;2065079;28;20226;-69
2023/07/16 02:44:00;;;;;;;1.20;1.00;;;;;26.10;99975.00;;;;2063965;28;20288;-69
2023/07/16 02:45:01;;;;;;;1.07;0.73;;;;;26.10;99976.00;;;;2053018;28;20223;-69
2023/07/16 02:46:01;;;;;;;1.20;0.77;;;;;26.10;99969.00;;;;2067525;28;20457;-69
2023/07/16 02:47:01;;;;;;;1.70;0.90;;;;;26.00;99973.00;;;;2055705;28;20226;-69
2023/07/16 02:48:02;;;;;;;0.90;0.70;;;;;26.00;99943.00;;;;2057419;28;20286;-69
2023/07/16 02:49:03;;;;;;;1.47;0.90;;;;;26.10;99976.00;;;;2066653;28;20237;-69
2023/07/16 02:50:03;;;;;;;0.80;0.60;;;;;26.10;99979.00;;;;2060615;28;20671;-69
2023/07/16 02:51:03;;;;;;;1.03;0.70;;;;;26.10;99979.00;;;;2063714;28;20247;-69
2023/07/16 02:52:04;;;;;;;1.10;0.97;;;;;26.10;99976.00;;;;2067413;28;20273;-69
2023/07/16 02:53:05;;;;;;;1.10;0.90;;;;;26.10;99980.00;;;;2063384;28;20223;-69
2023/07/16 02:54:05;;;;;;;1.20;1.10;;;;;26.10;99980.00;;;;2065728;28;20688;-69
2023/07/16 02:55:06;;;;;;;2.27;0.97;;;;;26.10;99977.00;;;;2055882;28;21023;-69
2023/07/16 02:56:06;;;;;;;1.37;0.90;;;;;26.10;99977.00;;;;2064806;28;20249;-69
2023/07/16 02:57:06;;;;;;;1.43;1.00;;;;;26.10;99979.00;;;;2065483;28;20219;-69
2023/07/16 02:58:07;;;;;;;1.50;0.90;;;;;26.00;99981.00;;;;2066556;28;20242;-69
2023/07/16 02:59:09;;;;;;;1.30;0.83;;;;;26.00;99971.00;;;;2062903;28;20227;-69
2023/07/16 03:00:10;;;;;;;1.13;0.87;;;;;26.10;99975.00;;;;2054329;28;20219;-69
2023/07/16 03:01:11;;;;;;;1.40;1.00;;;;;26.10;99983.00;;;;2065652;28;20474;-69
2023/07/16 03:02:11;;;;;;;1.47;0.93;;;;;26.10;99980.00;;;;2067172;28;20214;-69
2023/07/16 03:03:11;;;;;;;2.97;0.97;;;;;26.00;99980.00;;;;2065260;28;20576;-69
2023/07/16 03:04:12;;;;;;;1.10;0.70;;;;;26.00;99973.00;;;;2062195;28;20672;-69
2023/07/16 03:05:12;;;;;;;1.20;0.80;;;;;26.10;99985.00;;;;2058448;28;20618;-69
2023/07/16 03:06:12;;;;;;;1.40;0.90;;;;;26.00;99981.00;;;;2062505;28;20226;-69
2023/07/16 03:07:12;;;;;;;1.20;0.87;;;;;26.10;99979.00;;;;2068609;28;20300;-69
2023/07/16 03:08:13;;;;;;;1.00;0.60;;;;;26.00;99983.00;;;;2065246;28;20215;-69
2023/07/16 03:09:13;;;;;;;3.23;0.87;;;;;26.00;99985.00;;;;2056119;28;20211;-69
2023/07/16 03:10:13;;;;;;;1.07;0.70;;;;;26.10;99976.00;;;;2064645;28;20322;-69
2023/07/16 03:11:14;;;;;;;2.03;0.80;;;;;26.00;99986.00;;;;2063554;28;20218;-69
2023/07/16 03:12:14;;;;;;;1.20;0.80;;;;;26.10;99986.00;;;;2064139;28;20262;-69
2023/07/16 03:13:14;;;;;;;3.00;1.40;;;;;26.00;99995.00;;;;2064319;28;20211;-69
2023/07/16 03:14:15;;;;;;;1.07;0.70;;;;;26.00;99991.00;;;;2055816;28;20796;-69
2023/07/16 03:15:15;;;;;;;1.50;0.90;;;;;26.00;99985.00;;;;2060939;28;20322;-69
2023/07/16 03:16:15;;;;;;;0.93;0.70;;;;;26.00;99981.00;;;;2061609;28;20223;-69
2023/07/16 03:17:16;;;;;;;0.90;0.70;;;;;26.10;99985.00;;;;2065179;28;20223;-69
2023/07/16 03:18:18;;;;;;;1.17;0.80;;;;;26.00;99981.00;;;;2065410;28;20288;-69
2023/07/16 03:19:18;;;;;;;1.10;0.77;;;;;26.00;99995.00;;;;2055476;28;20246;-69
2023/07/16 03:20:18;;;;;;;1.70;0.70;;;;;26.00;99978.00;;;;2062235;28;20975;-69
2023/07/16 03:21:19;;;;;;;2.73;0.80;;;;;26.00;99994.00;;;;2064565;28;20219;-69
2023/07/16 03:22:19;;;;;;;1.30;0.90;;;;;26.00;99995.00;;;;2063501;28;20652;-69
2023/07/16 03:23:19;;;;;;;1.10;0.80;;;;;26.00;100003.00;;;;2066756;28;20635;-69
2023/07/16 03:24:20;;;;;;;1.10;0.80;;;;;26.00;99995.00;;;;2054893;28;20223;-69
2023/07/16 03:25:20;;;;;;;1.10;0.80;;;;;26.00;100005.00;;;;2063950;28;20313;-69
2023/07/16 03:26:20;;;;;;;1.03;0.80;;;;;26.00;100000.00;;;;2065988;28;20660;-69
2023/07/16 03:27:21;;;;;;;1.20;0.90;;;;;26.00;100002.00;;;;2063927;28;20566;-69
2023/07/16 03:28:21;;;;;;;1.13;0.90;;;;;26.00;100002.00;;;;2069045;28;20686;-69
2023/07/16 03:29:21;;;;;;;1.50;0.90;;;;;26.00;100000.00;;;;2055040;28;20691;-69
2023/07/16 03:30:22;;;;;;;1.63;0.90;;;;;26.00;100006.00;;;;2064680;28;20230;-69
2023/07/16 03:31:22;;;;;;;1.20;0.80;;;;;26.00;100004.00;;;;2065627;28;20744;-69
2023/07/16 03:32:22;;;;;;;1.20;0.80;;;;;26.00;100011.00;;;;2063139;28;20223;-69
2023/07/16 03:33:23;;;;;;;1.10;0.90;;;;;26.00;100000.00;;;;2070492;28;20635;-69
2023/07/16 03:34:23;;;;;;;1.10;0.70;;;;;26.00;100000.00;;;;2057362;28;20967;-69
2023/07/16 03:35:25;;;;;;;1.00;0.60;;;;;26.00;100014.00;;;;2078626;28;20233;-69
2023/07/16 03:36:25;;;;;;;1.20;0.90;;;;;26.00;100013.00;;;;2073302;28;20780;-69
2023/07/16 03:37:25;;;;;;;1.47;1.20;;;;;26.00;100004.00;;;;2062997;28;20474;-69
2023/07/16 03:38:26;;;;;;;1.67;0.80;;;;;26.00;100012.00;;;;2062951;28;20238;-69
2023/07/16 03:39:26;;;;;;;2.00;1.00;;;;;26.00;100021.00;;;;2056200;28;20241;-69
2023/07/16 03:40:27;;;;;;;2.00;1.10;;;;;26.00;100023.00;;;;2064098;28;20233;-69
2023/07/16 03:41:27;;;;;;;1.40;0.90;;;;;26.00;100013.00;;;;2062826;28;20231;-69
2023/07/16 03:42:27;;;;;;;1.30;1.00;;;;;26.00;100015.00;;;;2065343;28;20289;-69
2023/07/16 03:43:28;;;;;;;1.73;0.90;;;;;26.00;100026.00;;;;2063114;28;20218;-69
2023/07/16 03:44:29;;;;;;;1.20;0.87;;;;;26.00;100018.00;;;;2058476;28;20272;-69
2023/07/16 03:45:29;;;;;;;1.13;0.60;;;;;26.00;100030.00;;;;2062569;28;20333;-69
2023/07/16 03:46:29;;;;;;;2.30;0.70;;;;;26.00;100029.00;;;;2061555;28;20498;-69
2023/07/16 03:47:30;;;;;;;1.20;0.80;;;;;26.00;100042.00;;;;2066280;28;20324;-69
2023/07/16 03:48:30;;;;;;;1.00;0.70;;;;;26.00;100029.00;;;;2063591;28;20575;-69
2023/07/16 03:49:30;;;;;;;1.50;0.70;;;;;26.00;100031.00;;;;2060012;28;20727;-69
2023/07/16 03:50:31;;;;;;;1.20;0.70;;;;;26.00;100029.00;;;;2063963;28;20675;-69
2023/07/16 03:51:31;;;;;;;1.10;0.83;;;;;26.00;100043.00;;;;2063247;28;20249;-69
2023/07/16 03:52:31;;;;;;;1.40;1.00;;;;;26.00;100035.00;;;;2062955;28;20658;-69
2023/07/16 03:53:32;;;;;;;1.40;0.77;;;;;26.00;100038.00;;;;2062548;28;20698;-69
2023/07/16 03:54:32;;;;;;;1.13;0.80;;;;;26.00;100030.00;;;;2060904;28;21075;-69
2023/07/16 03:55:32;;;;;;;1.30;0.90;;;;;26.00;100040.00;;;;2064835;28;20231;-69
2023/07/16 03:56:33;;;;;;;1.27;0.90;;;;;26.00;100048.00;;;;2062623;28;20305;-69
2023/07/16 03:57:33;;;;;;;1.27;0.70;;;;;26.00;100051.00;;;;2064795;28;20218;-69
2023/07/16 03:58:33;;;;;;;1.30;0.80;;;;;26.00;100042.00;;;;2063358;28;20584;-69
2023/07/16 03:59:34;;;;;;;0.90;0.70;;;;;26.00;100046.00;;;;2053419;28;20239;-69
2023/07/16 04:00:34;;;;;;;1.03;0.90;;;;;26.00;100054.00;;;;2065720;28;20700;-69
2023/07/16 04:01:34;;;;;;;0.90;0.63;;;;;26.00;100039.00;;;;2064258;28;20218;-68
2023/07/16 04:02:35;;;;;;;0.93;0.80;;;;;26.00;100052.00;;;;2065295;28;20253;-69
2023/07/16 04:03:35;;;;;;;1.20;1.00;;;;;26.00;100047.00;;;;2066083;28;20218;-69
2023/07/16 04:04:35;;;;;;;1.33;0.90;;;;;26.00;100050.00;;;;2053871;28;20288;-69
2023/07/16 04:05:36;;;;;;;1.30;0.90;;;;;26.00;100056.00;;;;2068948;28;20219;-69
2023/07/16 04:06:36;;;;;;;1.00;0.77;;;;;26.00;100051.00;;;;2064585;28;20223;-69
2023/07/16 04:07:36;;;;;;;1.40;0.93;;;;;26.00;100048.00;;;;2063238;28;20229;-69
2023/07/16 04:08:37;;;;;;;1.33;0.87;;;;;26.00;100052.00;;;;2067436;28;20218;-69
2023/07/16 04:09:38;;;;;;;1.13;0.77;;;;;26.00;100053.00;;;;2051585;28;20266;-69
2023/07/16 04:10:38;;;;;;;1.97;1.10;;;;;26.00;100056.00;;;;2069973;28;20272;-69
2023/07/16 04:11:39;;;;;;;1.57;1.00;;;;;26.00;100053.00;;;;2063297;28;20457;-69
2023/07/16 04:12:39;;;;;;;1.23;0.90;;;;;26.00;100047.00;;;;2065574;28;20269;-69
2023/07/16 04:13:39;;;;;;;1.97;0.90;;;;;26.00;100055.00;;;;2071995;28;20226;-69
2023/07/16 04:14:40;;;;;;;1.30;0.90;;;;;26.00;100060.00;;;;2054515;28;20255;-68
2023/07/16 04:15:40;;;;;;;1.60;1.00;;;;;26.00;100058.00;;;;2071847;28;20217;-68
2023/07/16 04:16:40;;;;;;;1.20;0.77;;;;;26.00;100060.00;;;;2064936;28;20269;-69
2023/07/16 04:17:40;;;;;;;1.23;0.87;;;;;26.00;100060.00;;;;2063951;28;20215;-69
2023/07/16 04:18:41;;;;;;;1.73;1.00;;;;;26.00;100062.00;;;;2067484;28;20218;-69
2023/07/16 04:19:41;;;;;;;1.10;0.70;;;;;26.00;100064.00;;;;2055533;28;20254;-69
2023/07/16 04:20:41;;;;;;;1.03;0.80;;;;;26.00;100063.00;;;;2071502;28;20210;-69
2023/07/16 04:21:42;;;;;;;1.13;0.93;;;;;26.00;100067.00;;;;2066832;28;20225;-69
2023/07/16 04:22:42;;;;;;;1.70;0.70;;;;;26.00;100063.00;;;;2064709;28;20215;-69
2023/07/16 04:23:42;;;;;;;1.40;0.80;;;;;26.00;100070.00;;;;2066135;28;20215;-69
2023/07/16 04:24:43;;;;;;;1.50;0.90;;;;;26.00;100068.00;;;;2055607;28;20223;-69
2023/07/16 04:25:43;;;;;;;1.40;0.70;;;;;26.00;100067.00;;;;2062750;28;20219;-69
2023/07/16 04:26:43;;;;;;;1.10;0.97;;;;;26.00;100078.00;;;;2068877;28;20222;-69
2023/07/16 04:27:44;;;;;;;4.10;0.90;;;;;26.00;100068.00;;;;2065080;28;20215;-69
2023/07/16 04:28:44;;;;;;;1.10;0.70;;;;;26.00;100064.00;;;;2063358;28;20285;-69
2023/07/16 04:29:44;;;;;;;1.23;0.80;;;;;26.00;100069.00;;;;2056208;28;20224;-69
2023/07/16 04:30:45;;;;;;;1.27;0.70;;;;;26.00;100069.00;;;;2063670;28;20214;-69
2023/07/16 04:31:45;;;;;;;1.00;0.80;;;;;26.00;100069.00;;;;2069854;28;20829;-69
2023/07/16 04:32:45;;;;;;;1.20;0.77;;;;;26.00;100078.00;;;;2064225;28;20253;-69
2023/07/16 04:33:46;;;;;;;1.70;0.90;;;;;26.00;100075.00;;;;2064481;28;20223;-69
2023/07/16 04:34:46;;;;;;;1.20;0.83;;;;;26.00;100082.00;;;;2057807;28;20228;-69
2023/07/16 04:35:46;;;;;;;1.13;0.90;;;;;26.00;100075.00;;;;2063545;28;20219;-69
2023/07/16 04:36:47;;;;;;;1.10;0.80;;;;;26.00;100079.00;;;;2070953;28;20225;-69
2023/07/16 04:37:47;;;;;;;0.83;0.60;;;;;26.00;100078.00;;;;2065607;28;20552;-69
2023/07/16 04:38:47;;;;;;;1.53;0.77;;;;;26.00;100085.00;;;;2063733;28;20221;-69
2023/07/16 04:39:48;;;;;;;1.30;0.90;;;;;26.00;100080.00;;;;2057268;28;20234;-69
2023/07/16 04:40:48;;;;;;;1.77;0.97;;;;;26.00;100078.00;;;;2062842;28;20258;-69
2023/07/16 04:41:48;;;;;;;1.23;1.10;;;;;26.00;100087.00;;;;2064567;28;20211;-69
2023/07/16 04:42:48;;;;;;;1.60;1.07;;;;;26.00;100091.00;;;;2066875;28;20218;-69
2023/07/16 04:43:49;;;;;;;1.73;1.00;;;;;26.00;100080.00;;;;2064446;28;20255;-69
2023/07/16 04:44:49;;;;;;;2.07;0.90;;;;;26.00;100080.00;;;;2056523;28;20230;-69
2023/07/16 04:45:49;;;;;;;1.23;0.90;;;;;26.00;100093.00;;;;2065322;28;20229;-69
2023/07/16 04:46:50;;;;;;;1.40;1.10;;;;;26.00;100082.00;;;;2063852;28;20219;-69
2023/07/16 04:47:50;;;;;;;2.10;0.90;;;;;26.00;100083.00;;;;2068418;28;20221;-69
2023/07/16 04:48:50;;;;;;;1.10;0.80;;;;;26.00;100094.00;;;;2063107;28;20258;-69
2023/07/16 04:49:51;;;;;;;1.57;1.00;;;;;26.00;100090.00;;;;2045237;28;20290;-69
2023/07/16 04:50:52;;;;;;;1.57;0.80;;;;;26.00;100095.00;;;;2065617;28;20210;-69
2023/07/16 04:51:52;;;;;;;1.00;0.87;;;;;26.00;100093.00;;;;2063740;28;20211;-69
2023/07/16 04:52:53;;;;;;;1.40;1.00;;;;;26.00;100067.00;;;;2062877;28;20446;-69
2023/07/16 04:53:53;;;;;;;1.17;0.93;;;;;26.00;100091.00;;;;2063631;28;20229;-69
2023/07/16 04:54:53;;;;;;;1.83;1.10;;;;;26.00;100096.00;;;;2054193;28;20242;-69
2023/07/16 04:55:54;;;;;;;1.67;0.90;;;;;26.00;100091.00;;;;2067183;28;20250;-69
2023/07/16 04:56:54;;;;;;;1.47;0.80;;;;;26.00;100103.00;;;;2063755;28;20203;-69
2023/07/16 04:57:56;;;;;;;1.77;0.90;;;;;26.00;100094.00;;;;2069877;28;20210;-69
2023/07/16 04:58:58;;;;;;;1.37;0.93;;;;;26.00;100097.00;;;;2063312;28;20219;-69
2023/07/16 04:59:58;;;;;;;2.37;1.10;;;;;26.00;100101.00;;;;2053048;28;20477;-69
2023/07/16 05:00:59;;;;;;;1.20;0.80;;;;;26.00;100099.00;;;;2059168;28;20469;-69
2023/07/16 05:01:59;;;;;;;1.00;0.67;;;;;26.00;100096.00;;;;2053688;28;20323;-69